Time,TemperatureF,DewpointF,PressureIn,WindDirection,WindDirectionDegrees,WindSpeedMPH,WindSpeedGustMPH,Humidity,HourlyPrecipIn,Conditions,Clouds,dailyrainin,SoftwareType,DateUTC
2013-02-27 00:04:00,34.9,34.0,29.50,East,95,16.0,-999.0,97,-99.99,,,0.43,weatherlink.com 1.10,2013-02-27 05:04:00,
2013-02-27 00:19:00,34.9,34.0,29.50,East,98,11.0,-999.0,97,-99.99,,,0.45,weatherlink.com 1.10,2013-02-27 05:19:00,
2013-02-27 00:34:00,34.9,34.0,29.49,SE,127,14.0,-999.0,97,-99.99,,,0.50,weatherlink.com 1.10,2013-02-27 05:34:00,
2013-02-27 00:49:00,35.0,34.0,29.49,East,82,15.0,-999.0,97,-99.99,,,0.54,weatherlink.com 1.10,2013-02-27 05:49:00,
2013-02-27 01:04:00,35.0,34.0,29.49,ESE,103,11.0,-999.0,97,-99.99,,,0.57,weatherlink.com 1.10,2013-02-27 06:04:00,
2013-02-27 01:19:00,35.0,34.0,29.49,East,98,8.0,-999.0,97,-99.99,,,0.60,weatherlink.com 1.10,2013-02-27 06:19:00,
2013-02-27 01:34:00,35.1,34.0,29.49,ENE,78,11.0,-999.0,97,-99.99,,,0.63,weatherlink.com 1.10,2013-02-27 06:34:00,
2013-02-27 01:49:00,35.2,35.0,29.49,East,86,5.0,-999.0,97,-99.99,,,0.65,weatherlink.com 1.10,2013-02-27 06:49:00,
2013-02-27 02:04:00,35.5,35.0,29.48,East,97,7.0,-999.0,97,-99.99,,,0.69,weatherlink.com 1.10,2013-02-27 07:04:00,
2013-02-27 02:19:00,35.6,35.0,29.48,ENE,78,8.0,-999.0,97,-99.99,,,0.72,weatherlink.com 1.10,2013-02-27 07:19:00,
2013-02-27 02:34:00,35.7,35.0,29.48,East,80,4.0,-999.0,97,-99.99,,,0.74,weatherlink.com 1.10,2013-02-27 07:34:00,
2013-02-27 02:49:00,35.6,35.0,29.47,East,98,4.0,-999.0,97,-99.99,,,0.75,weatherlink.com 1.10,2013-02-27 07:49:00,
2013-02-27 03:04:00,36.0,35.0,29.47,ENE,70,1.0,-999.0,96,-99.99,,,0.76,weatherlink.com 1.10,2013-02-27 08:04:00,
2013-02-27 03:19:00,-999.0,-99.9,29.46,North,-999,-999.0,-999.0,-999,-99.99,,,0.00,weatherlink.com 1.10,2013-02-27 08:19:00,
2013-02-27 03:34:00,-999.0,-99.9,29.46,North,-999,-999.0,-999.0,-999,-99.99,,,0.00,weatherlink.com 1.10,2013-02-27 08:34:00,
2013-02-27 03:49:00,-999.0,-99.9,29.46,North,-999,-999.0,-999.0,-999,-99.99,,,0.00,weatherlink.com 1.10,2013-02-27 08:49:00,
2013-02-27 04:04:00,-999.0,-99.9,29.46,North,-999,-999.0,-999.0,-999,-99.99,,,0.00,weatherlink.com 1.10,2013-02-27 09:04:00,
2013-02-27 04:19:00,-999.0,-99.9,29.47,North,-999,-999.0,-999.0,-999,-99.99,,,0.00,weatherlink.com 1.10,2013-02-27 09:19:00,
2013-02-27 04:34:00,-999.0,-99.9,29.48,North,-999,-999.0,-999.0,-999,-99.99,,,0.00,weatherlink.com 1.10,2013-02-27 09:34:00,
2013-02-27 04:49:00,-999.0,-99.9,29.48,North,-999,-999.0,-999.0,-999,-99.99,,,0.00,weatherlink.com 1.10,2013-02-27 09:49:00,
2013-02-27 05:04:00,-999.0,-99.9,29.49,North,-999,-999.0,-999.0,-999,-99.99,,,0.00,weatherlink.com 1.10,2013-02-27 10:04:00,
2013-02-27 05:19:00,-999.0,-99.9,29.49,North,-999,-999.0,-999.0,-999,-99.99,,,0.00,weatherlink.com 1.10,2013-02-27 10:19:00,
2013-02-27 05:34:00,-999.0,-99.9,29.49,North,-999,-999.0,-999.0,-999,-99.99,,,0.00,weatherlink.com 1.10,2013-02-27 10:34:00,
2013-02-27 05:49:00,-999.0,-99.9,29.50,North,-999,-999.0,-999.0,-999,-99.99,,,0.00,weatherlink.com 1.10,2013-02-27 10:49:00,
2013-02-27 06:04:00,-999.0,-99.9,29.50,North,-999,-999.0,-999.0,-999,-99.99,,,0.00,weatherlink.com 1.10,2013-02-27 11:04:00,
2013-02-27 06:19:00,-999.0,-99.9,29.50,North,-999,-999.0,-999.0,-999,-99.99,,,0.00,weatherlink.com 1.10,2013-02-27 11:19:00,
2013-02-27 06:34:00,-999.0,-99.9,29.51,North,-999,-999.0,-999.0,-999,-99.99,,,0.00,weatherlink.com 1.10,2013-02-27 11:34:00,
2013-02-27 06:49:00,-999.0,-99.9,29.51,North,-999,-999.0,-999.0,-999,-99.99,,,0.00,weatherlink.com 1.10,2013-02-27 11:49:00,
2013-02-27 07:04:00,-999.0,-99.9,29.52,North,-999,-999.0,-999.0,-999,-99.99,,,0.00,weatherlink.com 1.10,2013-02-27 12:04:00,
2013-02-27 07:19:00,-999.0,-99.9,29.53,North,-999,-999.0,-999.0,-999,-99.99,,,0.00,weatherlink.com 1.10,2013-02-27 12:19:00,
2013-02-27 07:34:00,-999.0,-99.9,29.53,North,-999,-999.0,-999.0,-999,-99.99,,,0.00,weatherlink.com 1.10,2013-02-27 12:34:00,
2013-02-27 07:49:00,-999.0,-99.9,29.54,North,-999,-999.0,-999.0,-999,-99.99,,,0.00,weatherlink.com 1.10,2013-02-27 12:49:00,
2013-02-27 08:04:00,-999.0,-99.9,29.55,North,-999,-999.0,-999.0,-999,-99.99,,,0.00,weatherlink.com 1.10,2013-02-27 13:04:00,
2013-02-27 08:19:00,-999.0,-99.9,29.56,North,-999,-999.0,-999.0,-999,-99.99,,,0.00,weatherlink.com 1.10,2013-02-27 13:19:00,
2013-02-27 08:34:00,-999.0,-99.9,29.56,North,-999,-999.0,-999.0,-999,-99.99,,,0.00,weatherlink.com 1.10,2013-02-27 13:34:00,
2013-02-27 08:49:00,35.8,35.0,29.56,ESE,114,3.0,-999.0,97,-99.99,,,0.00,weatherlink.com 1.10,2013-02-27 13:49:00,
2013-02-27 09:04:00,35.8,35.0,29.57,SSW,199,1.0,-999.0,97,-99.99,,,0.01,weatherlink.com 1.10,2013-02-27 14:04:00,
2013-02-27 09:19:00,36.0,35.0,29.57,South,172,1.0,-999.0,97,-99.99,,,0.01,weatherlink.com 1.10,2013-02-27 14:19:00,
2013-02-27 09:34:00,36.2,36.0,29.57,SSW,198,4.0,-999.0,97,-99.99,,,0.02,weatherlink.com 1.10,2013-02-27 14:34:00,
2013-02-27 09:49:00,36.3,36.0,29.57,SSE,152,0.0,-999.0,97,-99.99,,,0.02,weatherlink.com 1.10,2013-02-27 14:49:00,
2013-02-27 10:04:00,36.3,36.0,29.58,SSW,200,1.0,-999.0,97,-99.99,,,0.03,weatherlink.com 1.10,2013-02-27 15:04:00,
2013-02-27 10:19:00,36.2,36.0,29.58,WSW,237,2.0,-999.0,97,-99.99,,,0.03,weatherlink.com 1.10,2013-02-27 15:19:00,
2013-02-27 10:34:00,36.2,35.0,29.58,SSW,200,5.0,-999.0,96,-99.99,,,0.04,weatherlink.com 1.10,2013-02-27 15:34:00,
2013-02-27 10:49:00,36.4,35.0,29.58,West,267,2.0,-999.0,96,-99.99,,,0.05,weatherlink.com 1.10,2013-02-27 15:49:00,
2013-02-27 11:04:00,36.5,35.0,29.58,ESE,114,4.0,-999.0,95,-99.99,,,0.05,weatherlink.com 1.10,2013-02-27 16:04:00,
2013-02-27 11:19:00,36.7,35.0,29.58,SSW,198,6.0,-999.0,94,-99.99,,,0.06,weatherlink.com 1.10,2013-02-27 16:19:00,
2013-02-27 11:34:00,37.4,36.0,29.59,South,179,9.0,-999.0,93,-99.99,,,0.07,weatherlink.com 1.10,2013-02-27 16:34:00,
2013-02-27 11:49:00,37.9,36.0,29.58,WSW,253,8.0,-999.0,92,-99.99,,,0.08,weatherlink.com 1.10,2013-02-27 16:49:00,
2013-02-27 12:04:00,38.0,36.0,29.59,SSW,211,3.0,-999.0,91,-99.99,,,0.08,weatherlink.com 1.10,2013-02-27 17:04:00,
2013-02-27 12:19:00,37.7,35.0,29.59,South,179,5.0,-999.0,91,-99.99,,,0.08,weatherlink.com 1.10,2013-02-27 17:19:00,
2013-02-27 12:34:00,37.3,35.0,29.59,WSW,249,4.0,-999.0,91,-99.99,,,0.09,weatherlink.com 1.10,2013-02-27 17:34:00,
2013-02-27 12:49:00,37.2,35.0,29.59,WSW,240,3.0,-999.0,91,-99.99,,,0.09,weatherlink.com 1.10,2013-02-27 17:49:00,
2013-02-27 13:04:00,37.2,35.0,29.59,SSW,207,5.0,-999.0,91,-99.99,,,0.09,weatherlink.com 1.10,2013-02-27 18:04:00,
2013-02-27 13:19:00,37.0,35.0,29.59,SSW,203,0.0,-999.0,91,-99.99,,,0.09,weatherlink.com 1.10,2013-02-27 18:19:00,
2013-02-27 13:34:00,36.7,34.0,29.59,SW,236,2.0,-999.0,91,-99.99,,,0.09,weatherlink.com 1.10,2013-02-27 18:34:00,
2013-02-27 13:49:00,36.5,34.0,29.59,SW,229,6.0,-999.0,92,-99.99,,,0.09,weatherlink.com 1.10,2013-02-27 18:49:00,
2013-02-27 14:04:00,36.3,34.0,29.59,WSW,245,0.0,-999.0,92,-99.99,,,0.09,weatherlink.com 1.10,2013-02-27 19:04:00,
2013-02-27 14:19:00,36.1,34.0,29.59,ENE,72,3.0,-999.0,93,-99.99,,,0.09,weatherlink.com 1.10,2013-02-27 19:19:00,
2013-02-27 14:34:00,36.0,34.0,29.59,SSW,213,0.0,-999.0,93,-99.99,,,0.09,weatherlink.com 1.10,2013-02-27 19:34:00,
2013-02-27 14:49:00,36.1,34.0,29.59,SSE,160,2.0,-999.0,93,-99.99,,,0.09,weatherlink.com 1.10,2013-02-27 19:49:00,
2013-02-27 15:04:00,36.0,35.0,29.59,SW,228,3.0,-999.0,94,-99.99,,,0.09,weatherlink.com 1.10,2013-02-27 20:04:00,
2013-02-27 15:19:00,36.0,35.0,29.60,SSW,207,4.0,-999.0,94,-99.99,,,0.09,weatherlink.com 1.10,2013-02-27 20:19:00,
2013-02-27 15:34:00,36.1,35.0,29.60,South,187,1.0,-999.0,94,-99.99,,,0.10,weatherlink.com 1.10,2013-02-27 20:34:00,
2013-02-27 15:49:00,35.8,34.0,29.60,SSW,210,6.0,-999.0,94,-99.99,,,0.10,weatherlink.com 1.10,2013-02-27 20:49:00,
2013-02-27 16:04:00,35.4,34.0,29.60,South,171,4.0,-999.0,94,-99.99,,,0.10,weatherlink.com 1.10,2013-02-27 21:04:00,
2013-02-27 16:19:00,34.9,34.0,29.60,SSE,163,2.0,-999.0,95,-99.99,,,0.11,weatherlink.com 1.10,2013-02-27 21:19:00,
2013-02-27 16:34:00,34.4,33.0,29.61,WSW,244,1.0,-999.0,95,-99.99,,,0.11,weatherlink.com 1.10,2013-02-27 21:34:00,
2013-02-27 16:49:00,34.2,33.0,29.61,SSW,212,0.0,-999.0,96,-99.99,,,0.11,weatherlink.com 1.10,2013-02-27 21:49:00,
2013-02-27 17:04:00,34.1,33.0,29.61,SSW,204,3.0,-999.0,96,-99.99,,,0.11,weatherlink.com 1.10,2013-02-27 22:04:00,
2013-02-27 17:19:00,34.0,33.0,29.61,SSW,197,2.0,-999.0,96,-99.99,,,0.11,weatherlink.com 1.10,2013-02-27 22:19:00,
2013-02-27 17:34:00,33.9,33.0,29.61,SW,222,4.0,-999.0,96,-99.99,,,0.11,weatherlink.com 1.10,2013-02-27 22:34:00,
2013-02-27 17:49:00,33.9,33.0,29.62,SSW,208,3.0,-999.0,96,-99.99,,,0.11,weatherlink.com 1.10,2013-02-27 22:49:00,
2013-02-27 18:04:00,33.9,33.0,29.62,South,174,2.0,-999.0,96,-99.99,,,0.11,weatherlink.com 1.10,2013-02-27 23:04:00,
2013-02-27 18:19:00,33.7,33.0,29.62,South,170,2.0,-999.0,96,-99.99,,,0.11,weatherlink.com 1.10,2013-02-27 23:19:00,
2013-02-27 18:34:00,33.8,33.0,29.63,SSE,160,2.0,-999.0,97,-99.99,,,0.11,weatherlink.com 1.10,2013-02-27 23:34:00,
2013-02-27 18:49:00,33.8,33.0,29.63,SSW,213,3.0,-999.0,97,-99.99,,,0.11,weatherlink.com 1.10,2013-02-27 23:49:00,
2013-02-27 19:04:00,33.7,33.0,29.63,South,183,5.0,-999.0,97,-99.99,,,0.11,weatherlink.com 1.10,2013-02-28 00:04:00,
2013-02-27 19:19:00,33.8,33.0,29.63,WNW,288,2.0,-999.0,97,-99.99,,,0.11,weatherlink.com 1.10,2013-02-28 00:19:00,
2013-02-27 19:34:00,33.7,33.0,29.63,SSW,197,2.0,-999.0,97,-99.99,,,0.11,weatherlink.com 1.10,2013-02-28 00:34:00,
2013-02-27 19:49:00,33.7,33.0,29.62,SW,218,4.0,-999.0,97,-99.99,,,0.11,weatherlink.com 1.10,2013-02-28 00:49:00,
2013-02-27 20:04:00,33.8,33.0,29.62,SSW,210,3.0,-999.0,97,-99.99,,,0.11,weatherlink.com 1.10,2013-02-28 01:04:00,
2013-02-27 20:19:00,33.8,33.0,29.62,SSW,198,0.0,-999.0,97,-99.99,,,0.11,weatherlink.com 1.10,2013-02-28 01:19:00,
2013-02-27 20:34:00,33.7,33.0,29.62,SSW,201,2.0,-999.0,97,-99.99,,,0.11,weatherlink.com 1.10,2013-02-28 01:34:00,
2013-02-27 20:49:00,33.8,33.0,29.62,SSW,208,1.0,-999.0,97,-99.99,,,0.11,weatherlink.com 1.10,2013-02-28 01:49:00,
2013-02-27 21:04:00,33.8,33.0,29.62,SSW,211,1.0,-999.0,97,-99.99,,,0.11,weatherlink.com 1.10,2013-02-28 02:04:00,
2013-02-27 21:19:00,33.8,33.0,29.62,SSW,205,0.0,-999.0,97,-99.99,,,0.12,weatherlink.com 1.10,2013-02-28 02:19:00,
2013-02-27 21:34:00,33.8,33.0,29.62,NW,314,0.0,-999.0,97,-99.99,,,0.12,weatherlink.com 1.10,2013-02-28 02:34:00,
2013-02-27 21:49:00,33.7,33.0,29.62,SSW,193,0.0,-999.0,96,-99.99,,,0.12,weatherlink.com 1.10,2013-02-28 02:49:00,
2013-02-27 22:04:00,33.7,33.0,29.62,SW,225,3.0,-999.0,96,-99.99,,,0.12,weatherlink.com 1.10,2013-02-28 03:04:00,
2013-02-27 22:19:00,33.7,33.0,29.61,SW,236,0.0,-999.0,96,-99.99,,,0.12,weatherlink.com 1.10,2013-02-28 03:19:00,
2013-02-27 22:34:00,33.7,33.0,29.61,SW,217,2.0,-999.0,96,-99.99,,,0.12,weatherlink.com 1.10,2013-02-28 03:34:00,
2013-02-27 22:49:00,33.7,33.0,29.61,SSW,194,4.0,-999.0,96,-99.99,,,0.12,weatherlink.com 1.10,2013-02-28 03:49:00,
2013-02-27 23:04:00,33.7,33.0,29.61,SSW,200,3.0,-999.0,96,-99.99,,,0.12,weatherlink.com 1.10,2013-02-28 04:04:00,
2013-02-27 23:34:00,33.7,33.0,29.61,WNW,283,1.0,-999.0,96,-99.99,,,0.13,weatherlink.com 1.10,2013-02-28 04:34:00,
2013-02-27 23:49:00,33.7,33.0,29.61,NW,325,2.0,-999.0,96,-99.99,,,0.13,weatherlink.com 1.10,2013-02-28 04:49:00,